createdAt,value
2023-05-07T00:00:09.923Z,5.22
2023-05-07T00:02:57.224Z,4.75
2023-05-07T00:05:24.910Z,4.93
2023-05-07T00:07:53.607Z,4.55
2023-05-07T00:10:21.081Z,4.72
2023-05-07T00:12:48.173Z,4.82
2023-05-07T00:15:15.719Z,4.60
2023-05-07T00:17:42.753Z,3.78
2023-05-07T00:20:10.861Z,4.22
2023-05-07T00:22:38.698Z,4.57
2023-05-07T00:25:06.718Z,4.28
2023-05-07T00:27:33.796Z,3.95
2023-05-07T00:30:01.180Z,4.07
2023-05-07T00:32:28.143Z,4.72
2023-05-07T00:34:56.385Z,4.13
2023-05-07T00:37:23.261Z,4.95
2023-05-07T00:39:50.744Z,4.35
2023-05-07T00:42:17.766Z,4.38
2023-05-07T00:44:45.297Z,4.47
2023-05-07T00:47:12.710Z,4.15
2023-05-07T00:49:43.214Z,4.22
2023-05-07T00:52:16.594Z,4.93
2023-05-07T00:54:44.709Z,4.03
2023-05-07T00:57:12.424Z,4.22
2023-05-07T00:59:41.932Z,3.80
2023-05-07T01:02:09.662Z,4.25
2023-05-07T01:04:37.662Z,3.80
2023-05-07T01:07:06.487Z,3.80
2023-05-07T01:09:36.397Z,4.38
2023-05-07T01:12:04.665Z,4.03
2023-05-07T01:14:34.094Z,4.03
2023-05-07T01:17:01.352Z,3.55
2023-05-07T01:19:30.110Z,3.80
2023-05-07T01:22:05.520Z,3.92
2023-05-07T01:24:39.706Z,4.03
2023-05-07T01:27:08.394Z,3.67
2023-05-07T01:29:36.984Z,3.78
2023-05-07T01:32:04.489Z,3.72
2023-05-07T01:34:35.429Z,4.18
2023-05-07T01:37:02.773Z,3.30
2023-05-07T01:39:31.847Z,4.50
2023-05-07T01:42:00.776Z,3.88
2023-05-07T01:44:29.409Z,4.20
2023-05-07T01:46:57.865Z,3.95
2023-05-07T01:49:25.467Z,3.42
2023-05-07T01:51:53.021Z,3.60
2023-05-07T01:54:21.613Z,4.20
2023-05-07T01:56:49.967Z,3.95
2023-05-07T01:59:17.590Z,3.33
2023-05-07T02:01:45.206Z,3.75
2023-05-07T02:04:13.221Z,3.28
2023-05-07T02:06:40.783Z,3.22
2023-05-07T02:09:12.866Z,4.00
2023-05-07T02:11:42.815Z,3.70
2023-05-07T02:14:09.925Z,3.42
2023-05-07T02:16:37.035Z,3.80
2023-05-07T02:19:04.474Z,4.43
2023-05-07T02:21:31.521Z,3.47
2023-05-07T02:23:58.791Z,3.92
2023-05-07T02:26:27.158Z,3.53
2023-05-07T02:28:54.902Z,3.92
2023-05-07T02:31:22.331Z,3.72
2023-05-07T02:33:49.849Z,3.67
2023-05-07T02:36:17.296Z,3.90
2023-05-07T02:38:54.305Z,3.85
2023-05-07T02:41:22.218Z,3.35
2023-05-07T02:43:49.510Z,3.67
2023-05-07T02:46:17.090Z,4.35
2023-05-07T02:48:48.386Z,3.80
2023-05-07T02:51:15.321Z,2.92
2023-05-07T02:53:43.648Z,3.67
2023-05-07T02:56:11.380Z,3.72
2023-05-07T02:58:40.395Z,3.45
2023-05-07T03:01:07.781Z,3.42
2023-05-07T03:03:48.363Z,3.33
2023-05-07T03:06:16.490Z,4.13
2023-05-07T03:08:44.267Z,3.58
2023-05-07T03:11:11.483Z,3.53
2023-05-07T03:13:38.774Z,3.40
2023-05-07T03:16:06.637Z,3.28
2023-05-07T03:18:33.930Z,3.20
2023-05-07T03:21:01.061Z,3.30
2023-05-07T03:23:28.444Z,2.97
2023-05-07T03:25:55.339Z,3.22
2023-05-07T03:28:23.146Z,3.38
2023-05-07T03:30:55.408Z,3.35
2023-05-07T03:33:23.136Z,3.55
2023-05-07T03:35:50.766Z,3.13
2023-05-07T03:38:22.349Z,3.33
2023-05-07T03:40:49.748Z,3.03
2023-05-07T03:43:17.465Z,3.00
2023-05-07T03:45:49.512Z,3.17
2023-05-07T03:48:22.131Z,3.13
2023-05-07T03:50:51.137Z,3.17
2023-05-07T03:53:19.669Z,3.10
2023-05-07T03:55:46.577Z,3.40
2023-05-07T03:58:13.830Z,3.20
2023-05-07T04:00:41.914Z,3.28
2023-05-07T04:03:22.677Z,3.83
2023-05-07T04:05:50.599Z,3.10
2023-05-07T04:08:17.967Z,3.20
2023-05-07T04:10:55.965Z,3.10
2023-05-07T04:13:24.583Z,2.78
2023-05-07T04:15:56.233Z,3.33
2023-05-07T04:18:24.513Z,3.30
2023-05-07T04:20:52.307Z,2.90
2023-05-07T04:23:20.167Z,3.55
2023-05-07T04:25:47.339Z,3.05
2023-05-07T04:28:23.127Z,3.10
2023-05-07T04:30:50.862Z,3.05
2023-05-07T04:33:18.629Z,2.90
2023-05-07T04:35:47.255Z,3.20
2023-05-07T04:38:15.818Z,3.13
2023-05-07T04:40:43.438Z,3.00
2023-05-07T04:43:15.199Z,3.17
2023-05-07T04:45:47.814Z,3.17
2023-05-07T04:48:17.146Z,2.90
2023-05-07T04:50:44.260Z,3.05
2023-05-07T04:53:12.833Z,3.55
2023-05-07T04:55:39.855Z,3.13
2023-05-07T04:58:08.280Z,2.90
2023-05-07T05:00:37.167Z,3.60
2023-05-07T05:03:10.090Z,3.08
2023-05-07T05:05:39.192Z,2.60
2023-05-07T05:08:06.984Z,3.03
2023-05-07T05:10:37.024Z,3.15
2023-05-07T05:13:04.260Z,3.33
2023-05-07T05:15:33.874Z,3.00
2023-05-07T05:18:02.303Z,2.83
2023-05-07T05:20:29.265Z,2.45
2023-05-07T05:22:56.638Z,2.58
2023-05-07T05:25:23.518Z,2.72
2023-05-07T05:27:50.745Z,2.70
2023-05-07T05:30:17.673Z,2.80
2023-05-07T05:32:47.310Z,2.67
2023-05-07T05:35:14.919Z,2.55
2023-05-07T05:37:43.702Z,3.35
2023-05-07T05:40:11.149Z,2.50
2023-05-07T05:42:38.785Z,2.20
2023-05-07T05:45:06.911Z,2.03
2023-05-07T05:47:35.294Z,1.90
2023-05-07T05:50:02.402Z,2.33
2023-05-07T05:52:29.858Z,2.20
2023-05-07T05:54:57.930Z,2.20
2023-05-07T05:57:28.018Z,2.10
2023-05-07T05:59:56.561Z,1.85
2023-05-07T06:02:24.998Z,2.25
2023-05-07T06:04:52.229Z,2.30
2023-05-07T06:07:21.909Z,2.10
2023-05-07T06:09:50.105Z,2.05
2023-05-07T06:12:17.325Z,1.90
2023-05-07T06:14:45.008Z,2.20
2023-05-07T06:17:12.833Z,2.00
2023-05-07T06:19:40.210Z,2.10
2023-05-07T06:22:08.434Z,2.20
2023-05-07T06:24:35.998Z,1.95
2023-05-07T06:27:05.637Z,2.00
2023-05-07T06:29:34.450Z,1.75
2023-05-07T06:32:10.060Z,1.83
2023-05-07T06:34:38.109Z,1.92
2023-05-07T06:37:05.972Z,2.00
2023-05-07T06:39:47.070Z,1.67
2023-05-07T06:42:14.301Z,2.17
2023-05-07T06:44:43.566Z,2.15
2023-05-07T06:47:16.654Z,1.52
2023-05-07T06:49:46.829Z,1.67
2023-05-07T06:52:17.477Z,2.13
2023-05-07T06:54:45.818Z,1.98
2023-05-07T06:57:15.956Z,1.63
2023-05-07T06:59:43.295Z,2.40
2023-05-07T07:02:11.281Z,2.13
2023-05-07T07:04:39.757Z,1.83
2023-05-07T07:07:10.983Z,1.95
2023-05-07T07:09:39.569Z,2.40
2023-05-07T07:12:08.476Z,2.00
2023-05-07T07:14:38.014Z,2.13
2023-05-07T07:17:06.284Z,2.20
2023-05-07T07:19:34.084Z,2.10
2023-05-07T07:22:03.640Z,1.83
2023-05-07T07:24:31.084Z,1.90
2023-05-07T07:27:01.970Z,1.90
2023-05-07T07:29:30.187Z,2.45
2023-05-07T07:31:57.891Z,2.00
2023-05-07T07:34:25.312Z,1.70
2023-05-07T07:36:52.645Z,1.80
2023-05-07T07:39:20.447Z,1.88
2023-05-07T07:41:50.890Z,1.92
2023-05-07T07:44:19.295Z,2.38
2023-05-07T07:46:51.932Z,1.83
2023-05-07T07:49:20.215Z,2.13
2023-05-07T07:51:48.468Z,1.95
2023-05-07T07:54:16.929Z,1.80
2023-05-07T07:56:44.788Z,2.08
2023-05-07T07:59:14.993Z,2.45
2023-05-07T08:01:42.762Z,1.65
2023-05-07T08:04:09.842Z,2.47
2023-05-07T08:06:41.274Z,1.98
2023-05-07T08:09:10.427Z,1.70
2023-05-07T08:11:41.079Z,1.83
2023-05-07T08:14:08.622Z,1.70
2023-05-07T08:16:36.896Z,1.80
2023-05-07T08:19:04.419Z,1.70
2023-05-07T08:21:34.574Z,1.85
2023-05-07T08:24:03.160Z,1.92
2023-05-07T08:26:32.005Z,2.00
2023-05-07T08:28:59.255Z,1.80
2023-05-07T08:31:26.951Z,1.70
2023-05-07T08:33:54.506Z,1.98
2023-05-07T08:36:22.126Z,2.10
2023-05-07T08:38:50.681Z,2.03
2023-05-07T08:41:18.768Z,2.20
2023-05-07T08:43:51.017Z,2.17
2023-05-07T08:46:21.626Z,1.70
2023-05-07T08:48:51.946Z,1.95
2023-05-07T08:51:21.995Z,2.00
2023-05-07T08:53:51.007Z,1.85
2023-05-07T08:56:25.014Z,1.90
2023-05-07T08:58:57.667Z,1.67
2023-05-07T09:01:26.336Z,1.50
2023-05-07T09:03:55.480Z,1.80
2023-05-07T09:06:24.050Z,2.05
2023-05-07T09:08:53.407Z,2.13
2023-05-07T09:11:25.043Z,1.92
2023-05-07T09:13:58.917Z,1.95
2023-05-07T09:16:28.061Z,2.00
2023-05-07T09:18:58.374Z,2.03
2023-05-07T09:21:28.359Z,1.58
2023-05-07T09:23:58.455Z,2.92
2023-05-07T09:26:35.784Z,2.45
2023-05-07T09:29:04.635Z,1.90
2023-05-07T09:31:32.062Z,1.70
2023-05-07T09:33:59.999Z,2.08
2023-05-07T09:36:30.434Z,1.75
2023-05-07T09:39:01.255Z,2.35
2023-05-07T09:44:10.846Z,3.05
2023-05-07T09:46:47.711Z,1.77
2023-05-07T09:52:03.421Z,2.38
2023-05-07T09:54:34.744Z,2.03
2023-05-07T09:57:05.052Z,1.88
2023-05-07T09:59:35.816Z,2.05
2023-05-07T10:02:07.509Z,2.00
2023-05-07T10:04:42.064Z,1.70
2023-05-07T10:07:11.491Z,1.92
2023-05-07T10:09:40.520Z,2.20
2023-05-07T10:12:13.347Z,1.75
2023-05-07T10:14:40.844Z,1.40
2023-05-07T10:17:09.338Z,1.60
2023-05-07T10:19:37.773Z,1.70
2023-05-07T10:22:07.264Z,1.85
2023-05-07T10:24:40.139Z,1.88
2023-05-07T10:27:17.051Z,1.85
2023-05-07T10:30:08.380Z,1.65
2023-05-07T10:32:43.878Z,1.40
2023-05-07T10:35:21.033Z,1.63
2023-05-07T10:37:51.056Z,1.90
2023-05-07T10:40:22.761Z,2.13
2023-05-07T10:42:58.448Z,2.10
2023-05-07T10:45:28.487Z,1.67
2023-05-07T10:48:29.565Z,1.50
2023-05-07T10:51:22.181Z,1.65
2023-05-07T10:54:16.735Z,1.80
2023-05-07T10:56:53.982Z,1.42
2023-05-07T10:59:35.134Z,1.95
2023-05-07T11:02:16.737Z,2.05
2023-05-07T11:05:21.398Z,1.77
2023-05-07T11:07:59.243Z,1.75
2023-05-07T11:10:52.725Z,1.75
2023-05-07T11:13:52.949Z,2.05
2023-05-07T11:16:38.965Z,1.50
2023-05-07T11:19:52.568Z,1.73
2023-05-07T11:22:58.138Z,1.75
2023-05-07T11:25:39.903Z,1.50
2023-05-07T11:28:19.421Z,1.80
2023-05-07T11:31:04.621Z,1.60
2023-05-07T11:33:33.332Z,1.67
2023-05-07T11:36:06.057Z,1.70
2023-05-07T11:38:40.007Z,1.60
2023-05-07T11:41:08.529Z,1.60
2023-05-07T11:43:40.941Z,1.60
2023-05-07T11:46:12.566Z,1.70
2023-05-07T11:48:40.714Z,1.75
2023-05-07T11:51:13.573Z,1.85
2023-05-07T11:53:43.033Z,1.90
2023-05-07T11:56:15.134Z,1.50
2023-05-07T11:58:43.823Z,1.60
2023-05-07T12:01:12.550Z,1.58
2023-05-07T12:03:47.138Z,1.75
2023-05-07T12:06:17.120Z,1.55
2023-05-07T12:08:52.701Z,1.75
2023-05-07T12:11:29.086Z,1.60
2023-05-07T12:14:06.209Z,1.73
2023-05-07T12:16:45.535Z,1.98
2023-05-07T12:19:18.323Z,1.40
2023-05-07T12:21:53.648Z,1.63
2023-05-07T12:24:28.914Z,1.63
2023-05-07T12:27:09.234Z,1.70
2023-05-07T12:29:41.949Z,2.03
2023-05-07T12:32:17.870Z,1.48
2023-05-07T12:34:46.574Z,1.48
2023-05-07T12:37:14.021Z,1.48
2023-05-07T12:39:51.336Z,1.23
2023-05-07T12:42:26.681Z,1.42
2023-05-07T12:44:54.453Z,1.30
2023-05-07T12:47:22.065Z,1.70
2023-05-07T12:49:49.746Z,1.65
2023-05-07T12:52:16.729Z,1.45
2023-05-07T12:54:45.499Z,1.63
2023-05-07T12:57:12.566Z,1.58
2023-05-07T12:59:42.036Z,1.40
2023-05-07T13:02:10.370Z,1.35
2023-05-07T13:04:39.655Z,1.40
2023-05-07T13:07:06.639Z,1.70
2023-05-07T13:09:34.184Z,1.60
2023-05-07T13:12:03.673Z,1.90
2023-05-07T13:14:31.149Z,1.60
2023-05-07T13:16:58.391Z,1.30
2023-05-07T13:19:25.974Z,1.42
2023-05-07T13:21:54.225Z,1.60
2023-05-07T13:24:21.437Z,1.50
2023-05-07T13:26:48.484Z,1.30
2023-05-07T13:29:15.703Z,1.50
2023-05-07T13:31:45.238Z,1.27
2023-05-07T13:34:12.522Z,1.48
2023-05-07T13:36:41.041Z,1.58
2023-05-07T13:39:10.434Z,1.30
2023-05-07T13:41:37.819Z,1.50
2023-05-07T13:44:05.585Z,1.70
2023-05-07T13:46:33.281Z,1.45
2023-05-07T13:49:00.661Z,1.30
2023-05-07T13:51:27.996Z,1.50
2023-05-07T13:53:55.331Z,1.30
2023-05-07T13:56:22.849Z,1.10
2023-05-07T13:58:59.588Z,1.30
2023-05-07T14:01:28.249Z,1.67
2023-05-07T14:03:58.135Z,1.27
2023-05-07T14:06:27.319Z,1.50
2023-05-07T14:08:54.797Z,1.67
2023-05-07T14:11:22.356Z,1.85
2023-05-07T14:13:49.690Z,1.55
2023-05-07T14:16:16.950Z,1.30
2023-05-07T14:18:44.229Z,1.40
2023-05-07T14:21:11.373Z,1.50
2023-05-07T14:23:38.695Z,1.10
2023-05-07T14:26:06.081Z,1.20
2023-05-07T14:28:33.367Z,1.30
2023-05-07T14:31:01.241Z,1.50
2023-05-07T14:33:28.692Z,1.70
2023-05-07T14:35:56.232Z,1.35
2023-05-07T14:38:23.908Z,1.77
2023-05-07T14:40:51.469Z,1.42
2023-05-07T14:43:19.009Z,1.40
2023-05-07T14:45:46.858Z,1.52
2023-05-07T14:48:16.248Z,1.33
2023-05-07T14:50:43.676Z,1.60
2023-05-07T14:53:11.384Z,1.65
2023-05-07T14:55:38.798Z,1.50
2023-05-07T14:58:06.796Z,1.73
2023-05-07T15:00:35.105Z,1.38
2023-05-07T15:03:12.107Z,1.52
2023-05-07T15:05:43.114Z,1.20
2023-05-07T15:08:11.409Z,1.35
2023-05-07T15:10:42.496Z,1.30
2023-05-07T15:13:15.289Z,1.48
2023-05-07T15:15:47.249Z,1.20
2023-05-07T15:18:16.775Z,1.00
2023-05-07T15:20:44.141Z,1.70
2023-05-07T15:23:14.464Z,1.30
2023-05-07T15:25:44.729Z,1.00
2023-05-07T15:28:12.563Z,1.33
2023-05-07T15:30:39.881Z,1.10
2023-05-07T15:33:08.153Z,1.00
2023-05-07T15:35:37.072Z,1.15
2023-05-07T15:38:06.745Z,1.58
2023-05-07T15:40:36.398Z,1.33
2023-05-07T15:43:05.200Z,1.60
2023-05-07T15:45:32.707Z,1.30
2023-05-07T15:48:01.624Z,0.95
2023-05-07T15:50:29.960Z,1.10
2023-05-07T15:52:58.335Z,1.40
2023-05-07T15:55:25.792Z,1.10
2023-05-07T15:57:55.392Z,1.50
2023-05-07T16:00:22.791Z,1.50
2023-05-07T16:02:50.261Z,1.70
2023-05-07T16:05:17.960Z,1.35
2023-05-07T16:07:45.508Z,2.13
2023-05-07T16:10:12.415Z,1.88
2023-05-07T16:12:40.067Z,1.30
2023-05-07T16:15:07.550Z,1.50
2023-05-07T16:17:35.152Z,1.60
2023-05-07T16:20:06.361Z,1.40
2023-05-07T16:25:02.131Z,1.50
2023-05-07T16:27:30.334Z,1.33
2023-05-07T16:29:57.220Z,1.58
2023-05-07T16:32:24.812Z,1.73
2023-05-07T16:34:52.167Z,1.42
2023-05-07T16:37:19.516Z,1.70
2023-05-07T16:39:46.858Z,1.60
2023-05-07T16:42:14.159Z,1.52
2023-05-07T16:44:42.499Z,1.23
2023-05-07T16:47:09.840Z,1.70
2023-05-07T16:49:37.167Z,1.65
2023-05-07T16:52:05.897Z,1.83
2023-05-07T16:54:33.323Z,1.73
2023-05-07T16:57:01.309Z,1.83
2023-05-07T16:59:32.266Z,1.80
2023-05-07T17:02:00.045Z,1.98
2023-05-07T17:04:27.066Z,2.40
2023-05-07T17:06:54.657Z,2.53
2023-05-07T17:09:22.159Z,2.50
2023-05-07T17:11:49.857Z,2.10
2023-05-07T17:14:16.987Z,2.20
2023-05-07T17:16:44.439Z,2.33
2023-05-07T17:19:11.976Z,2.55
2023-05-07T17:21:39.472Z,1.90
2023-05-07T17:24:07.306Z,2.10
2023-05-07T17:26:36.649Z,2.28
2023-05-07T17:29:03.882Z,2.40
2023-05-07T17:31:31.589Z,2.90
2023-05-07T17:33:59.166Z,3.17
2023-05-07T17:36:26.458Z,2.70
2023-05-07T17:38:53.958Z,2.28
2023-05-07T17:41:22.714Z,2.83
2023-05-07T17:43:50.270Z,2.38
2023-05-07T17:46:18.516Z,2.42
2023-05-07T17:48:45.601Z,2.90
2023-05-07T17:51:13.348Z,2.20
2023-05-07T17:53:40.304Z,2.40
2023-05-07T17:56:07.735Z,2.40
2023-05-07T17:58:39.165Z,2.78
2023-05-07T18:01:21.978Z,2.85
2023-05-07T18:03:49.109Z,2.50
2023-05-07T18:06:19.297Z,3.03
2023-05-07T18:08:46.452Z,2.75
2023-05-07T18:11:13.855Z,2.78
2023-05-07T18:13:41.470Z,2.80
2023-05-07T18:16:09.872Z,2.70
2023-05-07T18:18:36.969Z,2.83
2023-05-07T18:21:04.885Z,2.75
2023-05-07T18:23:33.749Z,2.60
2023-05-07T18:26:01.821Z,3.08
2023-05-07T18:28:29.240Z,2.97
2023-05-07T18:30:56.709Z,3.22
2023-05-07T18:33:23.675Z,3.03
2023-05-07T18:35:51.127Z,4.13
2023-05-07T18:38:18.310Z,3.15
2023-05-07T18:40:47.309Z,3.80
2023-05-07T18:43:14.122Z,3.38
2023-05-07T18:45:42.068Z,3.50
2023-05-07T18:48:09.345Z,3.50
2023-05-07T18:50:37.102Z,3.28
2023-05-07T18:53:04.129Z,3.38
2023-05-07T18:55:31.597Z,2.92
2023-05-07T18:57:58.594Z,3.15
2023-05-07T19:00:26.117Z,3.00
2023-05-07T19:02:52.974Z,3.58
2023-05-07T19:05:20.987Z,3.15
2023-05-07T19:07:47.969Z,2.92
2023-05-07T19:10:15.528Z,3.45
2023-05-07T19:12:42.744Z,3.92
2023-05-07T19:15:10.556Z,2.88
2023-05-07T19:17:38.098Z,3.17
2023-05-07T19:22:38.635Z,3.35
2023-05-07T19:25:06.653Z,3.13
2023-05-07T19:27:34.195Z,3.08
2023-05-07T19:30:01.651Z,3.13
2023-05-07T19:32:28.655Z,3.17
2023-05-07T19:34:55.904Z,3.10
2023-05-07T19:37:25.558Z,3.50
2023-05-07T19:39:53.677Z,3.40
2023-05-07T19:42:21.074Z,3.47
2023-05-07T19:44:48.179Z,3.03
2023-05-07T19:47:16.549Z,3.50
2023-05-07T19:49:43.802Z,2.88
2023-05-07T19:52:10.840Z,3.47
2023-05-07T19:54:38.083Z,3.17
2023-05-07T19:57:05.457Z,3.45
2023-05-07T19:59:32.598Z,4.22
2023-05-07T20:02:00.259Z,3.70
2023-05-07T20:04:31.915Z,3.28
2023-05-07T20:09:26.444Z,3.88
2023-05-07T20:11:54.003Z,4.38
2023-05-07T20:14:21.189Z,3.38
2023-05-07T20:16:48.384Z,3.38
2023-05-07T20:19:15.653Z,3.70
2023-05-07T20:21:42.871Z,3.70
2023-05-07T20:24:10.128Z,3.70
2023-05-07T20:26:37.008Z,3.95
2023-05-07T20:29:04.445Z,3.58
2023-05-07T20:31:32.393Z,3.53
2023-05-07T20:33:59.774Z,4.00
2023-05-07T20:36:26.715Z,3.60
2023-05-07T20:38:54.256Z,3.80
2023-05-07T20:41:21.895Z,4.25
2023-05-07T20:43:49.309Z,4.55
2023-05-07T20:46:16.572Z,4.40
2023-05-07T20:48:44.071Z,4.70
2023-05-07T20:51:13.839Z,4.43
2023-05-07T20:53:41.375Z,4.65
2023-05-07T20:56:08.230Z,4.50
2023-05-07T20:58:35.926Z,4.88
2023-05-07T21:01:04.440Z,6.03
2023-05-07T21:03:32.277Z,5.18
2023-05-07T21:06:00.553Z,4.47
2023-05-07T21:08:28.017Z,5.13
2023-05-07T21:10:55.689Z,4.55
2023-05-07T21:13:23.808Z,4.38
2023-05-07T21:15:51.117Z,5.05
2023-05-07T21:18:19.324Z,5.25
2023-05-07T21:20:46.160Z,5.28
2023-05-07T21:23:13.652Z,5.18
2023-05-07T21:25:41.552Z,5.47
2023-05-07T21:28:09.221Z,5.50
2023-05-07T21:30:36.889Z,5.28
2023-05-07T21:33:06.857Z,5.18
2023-05-07T21:35:35.901Z,5.70
2023-05-07T21:38:03.854Z,6.05
2023-05-07T21:40:31.064Z,5.78
2023-05-07T21:43:00.388Z,5.35
2023-05-07T21:45:28.049Z,5.97
2023-05-07T21:47:55.445Z,6.07
2023-05-07T21:50:22.842Z,6.47
2023-05-07T21:52:50.920Z,5.90
2023-05-07T21:55:18.170Z,6.32
2023-05-07T21:57:53.678Z,6.55
2023-05-07T22:00:25.298Z,6.47
2023-05-07T22:02:52.551Z,6.70
2023-05-07T22:05:19.856Z,6.72
2023-05-07T22:07:47.109Z,6.82
2023-05-07T22:10:14.545Z,7.22
2023-05-07T22:12:41.898Z,7.90
2023-05-07T22:15:09.410Z,8.18
2023-05-07T22:17:36.540Z,8.27
2023-05-07T22:20:04.514Z,7.78
2023-05-07T22:22:31.776Z,8.50
2023-05-07T22:24:58.907Z,8.25
2023-05-07T22:27:26.237Z,9.10
2023-05-07T22:29:53.159Z,8.13
2023-05-07T22:32:20.644Z,8.45
2023-05-07T22:34:48.028Z,9.38
2023-05-07T22:37:15.129Z,9.57
2023-05-07T22:39:42.299Z,10.15
2023-05-07T22:42:09.837Z,10.25
2023-05-07T22:44:36.742Z,9.93
2023-05-07T22:47:03.860Z,9.98
2023-05-07T22:49:30.993Z,9.95
2023-05-07T22:51:58.110Z,10.13
2023-05-07T22:54:25.604Z,8.88
2023-05-07T22:56:53.597Z,9.10
2023-05-07T22:59:20.525Z,11.23
2023-05-07T23:01:49.180Z,10.10
2023-05-07T23:04:16.465Z,10.35
2023-05-07T23:06:44.103Z,11.43
2023-05-07T23:09:12.744Z,10.80
2023-05-07T23:11:41.075Z,10.68
2023-05-07T23:14:08.381Z,10.88
2023-05-07T23:16:36.356Z,10.18
2023-05-07T23:19:03.309Z,10.25
2023-05-07T23:21:30.759Z,10.48
2023-05-07T23:23:57.813Z,10.80
2023-05-07T23:26:30.896Z,10.77
2023-05-07T23:28:58.097Z,11.07
2023-05-07T23:31:25.306Z,9.50
2023-05-07T23:33:52.384Z,10.77
2023-05-07T23:36:19.625Z,11.18
2023-05-07T23:38:46.969Z,11.32
2023-05-07T23:41:14.821Z,11.07
2023-05-07T23:43:41.993Z,11.18
2023-05-07T23:46:09.337Z,11.32
2023-05-07T23:48:36.682Z,10.77
2023-05-07T23:51:03.949Z,10.85
2023-05-07T23:53:31.580Z,11.80
2023-05-07T23:55:58.715Z,12.68
2023-05-07T23:58:25.574Z,11.13
